< Typhoon 199307 1993 Season Typhoon 199309 >
Typhoon 199308 (STEVE)
General InformationTrack Information on Google MapsDetailed Wind InformationList of All Images || Disaster Info.ResourceGoogle EarthGE AnimationAtom FeedGeoJSON
Detalied Best Track (Time Zone = UTC)
Year Month Day Hour Lat. Long. Pressure (hPa) Wind (kt) Class Image Chart
1993 8 5 18 12.2 152.5 1008 0 2 Image Chart
1993 8 6 00 12.5 152.0 1008 0 2 Image Chart
1993 8 6 06 13.0 151.3 1006 0 2 Image Chart
1993 8 6 12 13.5 150.5 1006 0 2 Image Chart
1993 8 6 18 13.8 149.7 1006 0 2 Image Chart
1993 8 7 00 14.2 149.0 1004 0 2 Image Chart
1993 8 7 06 14.7 148.2 1002 0 2 Image Chart
1993 8 7 12 15.2 147.4 1000 0 2 Image Chart
1993 8 7 18 15.5 146.4 1000 0 2 Image Chart
1993 8 8 00 15.6 145.6 996 35 3 Image Chart
1993 8 8 06 15.6 144.8 992 40 3 Image Chart
1993 8 8 12 15.6 143.8 990 45 3 Image Chart
1993 8 8 18 15.6 142.9 990 45 3 Image Chart
1993 8 9 00 15.8 142.0 985 50 4 Image Chart
1993 8 9 06 16.2 141.0 985 50 4 Image Chart
1993 8 9 12 16.4 140.0 985 50 4 Image Chart
1993 8 9 18 16.4 139.2 985 50 4 Image Chart
1993 8 10 00 16.4 138.6 980 55 4 Image Chart
1993 8 10 06 16.7 137.8 980 55 4 Image Chart
1993 8 10 12 17.0 137.0 980 55 4 Image Chart
1993 8 10 18 17.4 136.1 980 55 4 Image Chart
1993 8 11 00 18.0 135.3 985 50 4 Image Chart
1993 8 11 06 18.7 134.7 985 50 4 Image Chart
1993 8 11 12 19.5 134.0 990 40 3 Image Chart
1993 8 11 18 20.4 133.3 994 40 3 Image Chart
1993 8 12 00 21.3 132.6 998 40 3 Image Chart
1993 8 12 06 22.2 131.7 1002 0 2 Image Chart
1993 8 12 12 23.0 130.7 1004 0 2 Image Chart
1993 8 12 18 23.8 129.7 1004 0 2 Image Chart
1993 8 13 00 24.5 128.5 1004 0 2 Image Chart
1993 8 13 06 25.0 127.5 1004 0 2 Image Chart
1993 8 13 12 25.4 126.6 1006 0 2 Image Chart
1993 8 13 18 25.5 126.0 1006 0 2 Image Chart
1993 8 14 00 25.5 125.5 1006 0 2 Image Chart
Japan Meteorological Agency Best Track Data | Correction Date : 1994-01-10
< Typhoon 199307 1993 Season Typhoon 199309 >

Help